Time;durP1;ratioP1;P1;durP2;ratioP2;P2;SDS_P1;SDS_P2;PMS_P1;PMS_P2;Temp;Humidity;BMP_temperature;BMP_pressure;BME280_temperature;BME280_humidity;BME280_pressure;Samples;Min_cycle;Max_cycle;Signal;HPM_P1;HPM_P2
2023/08/07 00:00:09;;;;;;;3.30;2.60;;;16.20;79.40;;;;;;5071817;28;20187;-71
2023/08/07 00:02:36;;;;;;;2.13;1.90;;;16.20;78.40;;;;;;5068992;28;20215;-71
2023/08/07 00:05:04;;;;;;;4.10;2.00;;;16.30;77.30;;;;;;5072709;28;20190;-68
2023/08/07 00:07:31;;;;;;;1.97;1.53;;;16.40;77.20;;;;;;5071868;28;20190;-68
2023/08/07 00:10:00;;;;;;;3.30;1.43;;;16.50;76.30;;;;;;5067561;28;20180;-72
2023/08/07 00:12:28;;;;;;;2.13;1.20;;;16.60;74.80;;;;;;5071500;28;20203;-65
2023/08/07 00:14:55;;;;;;;2.90;1.30;;;16.50;74.00;;;;;;5072827;28;20190;-65
2023/08/07 00:17:23;;;;;;;5.13;1.10;;;16.60;72.60;;;;;;5070860;28;20699;-65
2023/08/07 00:19:50;;;;;;;1.30;1.00;;;16.60;72.10;;;;;;5072065;28;20261;-68
2023/08/07 00:22:17;;;;;;;3.93;0.93;;;16.70;71.20;;;;;;5071402;28;20210;-64
2023/08/07 00:24:44;;;;;;;1.57;0.90;;;16.80;71.00;;;;;;5071678;28;20202;-66
2023/08/07 00:27:12;;;;;;;3.30;1.30;;;16.80;70.60;;;;;;5068585;28;20274;-64
2023/08/07 00:29:48;;;;;;;2.13;1.20;;;16.70;70.90;;;;;;5071401;28;20191;-66
2023/08/07 00:32:15;;;;;;;2.90;1.30;;;16.80;71.50;;;;;;5070962;28;20302;-64
2023/08/07 00:34:43;;;;;;;5.50;1.40;;;16.80;71.90;;;;;;5063867;28;20684;-64
2023/08/07 00:37:10;;;;;;;2.13;1.20;;;16.70;72.00;;;;;;5072422;28;20216;-64
2023/08/07 00:39:38;;;;;;;2.80;1.10;;;16.70;72.30;;;;;;5071739;28;20545;-65
2023/08/07 00:42:06;;;;;;;3.70;1.43;;;16.90;72.10;;;;;;5071799;28;20211;-64
2023/08/07 00:44:33;;;;;;;4.23;1.43;;;17.10;71.50;;;;;;5072064;28;20182;-66
2023/08/07 00:47:00;;;;;;;7.23;1.50;;;17.10;71.60;;;;;;5070022;28;20261;-64
2023/08/07 00:49:28;;;;;;;3.33;1.10;;;16.90;71.90;;;;;;5087062;28;20189;-65
2023/08/07 00:51:55;;;;;;;2.40;1.17;;;16.80;72.40;;;;;;5071607;28;20183;-66
2023/08/07 00:54:23;;;;;;;3.73;1.00;;;16.80;72.40;;;;;;5070801;28;20291;-65
2023/08/07 00:56:51;;;;;;;4.60;1.03;;;16.70;73.50;;;;;;5072254;28;20179;-66
2023/08/07 00:59:19;;;;;;;5.03;1.20;;;16.90;73.10;;;;;;5071594;28;20262;-64
2023/08/07 01:01:47;;;;;;;2.77;1.40;;;16.80;73.20;;;;;;5071812;28;20706;-66
2023/08/07 01:04:14;;;;;;;2.90;1.10;;;16.90;73.40;;;;;;5069716;28;20186;-66
2023/08/07 01:06:42;;;;;;;2.17;1.20;;;17.30;73.70;;;;;;5072234;28;20214;-64
2023/08/07 01:09:09;;;;;;;7.00;1.13;;;17.50;72.30;;;;;;5067476;28;20201;-69
2023/08/07 01:12:25;;;;;;;5.23;1.00;;;17.60;72.70;;;;;;5071855;28;20225;-71
2023/08/07 01:15:10;;;;;;;3.47;0.93;;;17.50;71.60;;;;;;5067724;28;20285;-68
2023/08/07 01:17:37;;;;;;;3.47;0.97;;;17.70;72.10;;;;;;5067280;28;20186;-64
2023/08/07 01:20:05;;;;;;;1.80;0.90;;;17.80;71.10;;;;;;5071658;28;20183;-65
2023/08/07 01:22:34;;;;;;;2.93;0.80;;;17.90;69.70;;;;;;5070294;28;20233;-71
2023/08/07 01:25:01;;;;;;;3.97;0.90;;;17.70;68.10;;;;;;5068378;28;20185;-70
2023/08/07 01:27:34;;;;;;;2.50;1.10;;;17.60;69.00;;;;;;5068799;28;20680;-70
2023/08/07 01:30:22;;;;;;;3.43;0.90;;;17.50;69.00;;;;;;5071624;28;20545;-65
2023/08/07 01:32:50;;;;;;;2.60;0.80;;;17.40;69.80;;;;;;5068276;28;20222;-72
2023/08/07 01:35:19;;;;;;;1.90;1.03;;;17.40;69.80;;;;;;5071750;28;20261;-71
2023/08/07 01:37:49;;;;;;;2.30;1.30;;;17.10;71.70;;;;;;5069190;28;20191;-67
2023/08/07 01:40:17;;;;;;;3.73;1.47;;;16.80;74.00;;;;;;5070735;28;20182;-70
2023/08/07 01:42:45;;;;;;;3.50;1.30;;;16.70;76.20;;;;;;5071104;28;20308;-69
2023/08/07 01:45:13;;;;;;;2.93;0.90;;;16.70;75.40;;;;;;5069976;28;20186;-71
2023/08/07 01:47:40;;;;;;;2.93;0.97;;;16.70;75.70;;;;;;5070723;28;20186;-74
2023/08/07 01:50:07;;;;;;;3.53;1.10;;;16.70;76.40;;;;;;5070038;28;20885;-69
2023/08/07 01:52:35;;;;;;;1.67;0.97;;;16.70;75.60;;;;;;5065916;28;20259;-65
2023/08/07 01:55:02;;;;;;;2.13;1.10;;;16.60;74.90;;;;;;5070919;28;20178;-70
2023/08/07 01:57:30;;;;;;;2.40;1.00;;;16.50;74.60;;;;;;5069971;28;20187;-70
2023/08/07 01:59:59;;;;;;;2.17;1.40;;;16.50;74.90;;;;;;5071133;28;20188;-68
2023/08/07 02:02:26;;;;;;;2.13;1.00;;;16.50;75.70;;;;;;5070341;28;20295;-71
2023/08/07 02:04:53;;;;;;;2.63;0.90;;;16.60;74.90;;;;;;5067488;28;20594;-66
2023/08/07 02:07:21;;;;;;;2.47;1.20;;;16.50;74.90;;;;;;5069429;28;20200;-70
2023/08/07 02:09:48;;;;;;;1.80;1.13;;;16.50;75.80;;;;;;5067523;28;20199;-69
2023/08/07 02:12:15;;;;;;;4.13;1.50;;;16.50;75.60;;;;;;5069083;28;20241;-70
2023/08/07 02:14:43;;;;;;;3.03;1.33;;;16.60;76.00;;;;;;5068960;28;20194;-67
2023/08/07 02:17:10;;;;;;;2.43;1.47;;;16.60;76.00;;;;;;5068667;28;20661;-72
2023/08/07 02:19:37;;;;;;;2.00;1.00;;;16.80;75.80;;;;;;5069987;28;20643;-69
2023/08/07 02:22:05;;;;;;;1.80;0.80;;;16.80;74.50;;;;;;5069568;28;20215;-70
2023/08/07 02:24:33;;;;;;;1.43;0.70;;;16.70;75.00;;;;;;5071050;28;20637;-69
2023/08/07 02:27:00;;;;;;;1.97;1.00;;;16.80;74.90;;;;;;5071947;28;20281;-71
2023/08/07 02:29:29;;;;;;;2.83;1.00;;;16.80;75.00;;;;;;5069258;28;20238;-70
2023/08/07 02:31:57;;;;;;;2.13;0.97;;;16.90;75.00;;;;;;5070193;28;20234;-69
2023/08/07 02:34:24;;;;;;;1.47;0.90;;;16.80;74.30;;;;;;5070258;28;20190;-69
2023/08/07 02:36:51;;;;;;;3.37;0.97;;;16.80;74.50;;;;;;5071187;28;20183;-69
2023/08/07 02:39:18;;;;;;;1.63;1.23;;;16.90;75.50;;;;;;5071159;28;20201;-69
2023/08/07 02:41:46;;;;;;;4.43;1.17;;;17.00;75.70;;;;;;5074294;28;20214;-64
2023/08/07 02:44:13;;;;;;;1.90;1.07;;;17.10;75.70;;;;;;5073132;28;20655;-66
2023/08/07 02:46:41;;;;;;;4.77;1.00;;;17.00;75.30;;;;;;5073421;28;20184;-64
2023/08/07 02:49:08;;;;;;;3.47;1.10;;;16.90;75.70;;;;;;5070258;28;20182;-64
2023/08/07 02:51:35;;;;;;;4.17;1.10;;;17.10;76.10;;;;;;5071446;28;20237;-65
2023/08/07 02:54:03;;;;;;;2.83;1.07;;;17.00;76.00;;;;;;5067798;28;20223;-63
2023/08/07 02:56:30;;;;;;;1.23;0.90;;;17.10;75.30;;;;;;5072419;28;20190;-66
2023/08/07 02:58:59;;;;;;;1.23;1.03;;;17.30;73.80;;;;;;5073483;28;20179;-64
2023/08/07 03:01:27;;;;;;;1.13;0.83;;;17.70;72.30;;;;;;5071034;28;20191;-66
2023/08/07 03:03:54;;;;;;;2.97;1.10;;;18.00;71.50;;;;;;5074067;28;20226;-71
2023/08/07 03:06:22;;;;;;;3.90;1.30;;;18.30;70.40;;;;;;5073820;28;20190;-65
2023/08/07 03:08:49;;;;;;;3.17;1.10;;;18.70;69.50;;;;;;5073316;28;20536;-65
2023/08/07 03:11:16;;;;;;;2.10;0.97;;;18.70;68.30;;;;;;5072940;28;20262;-65
2023/08/07 03:13:44;;;;;;;1.50;1.00;;;18.60;67.70;;;;;;5072991;28;20187;-65
2023/08/07 03:16:11;;;;;;;3.43;0.93;;;18.70;66.80;;;;;;5069343;28;20651;-65
2023/08/07 03:18:38;;;;;;;1.70;0.80;;;18.50;67.20;;;;;;5072656;28;20254;-70
2023/08/07 03:21:06;;;;;;;2.77;0.80;;;18.30;66.80;;;;;;5069365;28;20187;-66
2023/08/07 03:23:33;;;;;;;2.97;0.70;;;18.30;67.30;;;;;;5069498;28;20274;-63
2023/08/07 03:26:08;;;;;;;1.23;0.73;;;18.10;67.30;;;;;;5076278;28;20195;-71
2023/08/07 03:28:37;;;;;;;1.23;0.83;;;18.30;66.10;;;;;;5072010;28;20270;-66
2023/08/07 03:31:04;;;;;;;1.23;0.80;;;18.30;66.10;;;;;;5073019;28;20229;-69
2023/08/07 03:33:32;;;;;;;0.90;0.70;;;18.30;65.30;;;;;;5073842;28;20201;-65
2023/08/07 03:36:02;;;;;;;2.23;0.70;;;18.20;66.50;;;;;;5072412;28;20211;-65
2023/08/07 03:38:29;;;;;;;1.73;0.90;;;18.20;66.50;;;;;;5071021;28;20187;-70
2023/08/07 03:40:57;;;;;;;1.13;0.80;;;18.30;66.00;;;;;;5073642;28;20734;-67
2023/08/07 03:43:24;;;;;;;3.17;0.80;;;18.30;66.10;;;;;;5071632;28;20226;-66
2023/08/07 03:45:57;;;;;;;2.00;0.63;;;18.30;65.90;;;;;;5072623;28;20589;-69
2023/08/07 03:48:25;;;;;;;4.77;1.03;;;18.40;65.70;;;;;;5072256;28;20222;-67
2023/08/07 03:50:52;;;;;;;2.83;1.00;;;18.40;64.60;;;;;;5067410;28;20549;-69
2023/08/07 03:53:19;;;;;;;2.27;0.87;;;18.10;65.10;;;;;;5073155;28;20195;-66
2023/08/07 03:55:56;;;;;;;2.20;1.03;;;18.30;65.20;;;;;;5070622;28;20708;-66
2023/08/07 03:58:23;;;;;;;3.00;0.90;;;18.30;64.90;;;;;;5071579;28;20909;-71
2023/08/07 04:00:53;;;;;;;1.50;0.83;;;18.10;66.20;;;;;;5071974;28;20534;-71
2023/08/07 04:03:23;;;;;;;2.00;1.00;;;17.90;68.20;;;;;;5072722;28;20248;-71
2023/08/07 04:05:54;;;;;;;3.20;0.80;;;17.90;68.50;;;;;;5072777;28;20217;-68
2023/08/07 04:08:23;;;;;;;0.87;0.60;;;18.00;67.30;;;;;;5071769;28;20183;-68
2023/08/07 04:11:04;;;;;;;1.73;0.70;;;17.90;67.30;;;;;;5065706;28;20754;-71
2023/08/07 04:13:32;;;;;;;1.57;0.87;;;17.80;65.90;;;;;;5070926;28;20186;-67
2023/08/07 04:16:01;;;;;;;3.13;0.90;;;17.80;66.80;;;;;;5072539;28;20194;-67
2023/08/07 04:18:28;;;;;;;3.23;1.07;;;17.90;67.30;;;;;;5067086;28;20195;-64
2023/08/07 04:20:57;;;;;;;3.43;0.83;;;17.80;67.80;;;;;;5066902;28;20240;-65
2023/08/07 04:23:25;;;;;;;1.97;0.80;;;18.00;68.50;;;;;;5072102;28;20858;-65
2023/08/07 04:25:53;;;;;;;2.10;0.80;;;18.00;68.20;;;;;;5069768;28;20695;-65
2023/08/07 04:28:21;;;;;;;1.43;0.80;;;18.00;69.20;;;;;;5071444;28;20187;-65
2023/08/07 04:30:53;;;;;;;2.40;1.00;;;17.80;69.30;;;;;;5072629;28;20725;-64
2023/08/07 04:33:21;;;;;;;6.13;1.17;;;17.70;71.10;;;;;;5072036;28;20233;-65
2023/08/07 04:35:48;;;;;;;2.37;0.80;;;17.60;71.10;;;;;;5071691;28;20186;-64
2023/08/07 04:38:16;;;;;;;5.93;1.20;;;17.40;71.50;;;;;;5072133;28;20601;-66
2023/08/07 04:40:50;;;;;;;5.70;1.10;;;17.30;73.40;;;;;;5070412;28;20222;-64
2023/08/07 04:43:21;;;;;;;1.27;0.70;;;17.10;74.30;;;;;;5069593;28;20231;-65
2023/08/07 04:45:49;;;;;;;3.33;1.07;;;17.20;75.20;;;;;;5070020;28;20236;-65
2023/08/07 04:48:17;;;;;;;1.50;0.90;;;17.30;74.70;;;;;;5071900;28;20284;-65
2023/08/07 04:50:45;;;;;;;1.20;0.80;;;17.40;74.20;;;;;;5072323;28;20225;-64
2023/08/07 04:53:12;;;;;;;5.10;1.30;;;17.40;73.80;;;;;;5071270;28;20191;-65
2023/08/07 04:55:40;;;;;;;2.67;1.13;;;17.20;73.70;;;;;;5071106;28;20284;-66
2023/08/07 04:58:07;;;;;;;3.13;1.17;;;17.10;74.70;;;;;;5070860;28;20221;-65
2023/08/07 05:00:36;;;;;;;3.90;1.60;;;17.10;74.60;;;;;;5068488;28;20179;-65
2023/08/07 05:03:04;;;;;;;3.97;0.90;;;16.90;75.00;;;;;;5071302;28;20669;-63
2023/08/07 05:05:31;;;;;;;1.80;0.83;;;16.80;74.00;;;;;;5069339;28;20182;-65
2023/08/07 05:07:59;;;;;;;2.07;1.23;;;17.00;74.80;;;;;;5071326;28;20675;-64
2023/08/07 05:10:26;;;;;;;3.07;1.20;;;16.80;74.70;;;;;;5070167;28;20182;-65
2023/08/07 05:12:57;;;;;;;3.17;1.00;;;16.70;75.50;;;;;;5068747;28;20189;-65
2023/08/07 05:15:28;;;;;;;0.93;0.77;;;16.80;75.40;;;;;;5069043;28;20304;-65
2023/08/07 05:17:56;;;;;;;3.27;1.00;;;16.70;76.00;;;;;;5066256;28;20345;-65
2023/08/07 05:20:23;;;;;;;4.20;1.20;;;16.60;75.80;;;;;;5067535;28;20181;-65
2023/08/07 05:22:50;;;;;;;2.20;0.90;;;16.60;75.30;;;;;;5070948;28;20297;-64
2023/08/07 05:25:18;;;;;;;2.73;1.00;;;16.50;75.90;;;;;;5068628;28;20178;-64
2023/08/07 05:27:48;;;;;;;1.60;0.90;;;16.40;75.40;;;;;;5068744;28;20771;-64
2023/08/07 05:30:16;;;;;;;3.87;1.30;;;16.30;75.30;;;;;;5071540;28;20187;-64
2023/08/07 05:32:44;;;;;;;2.37;1.10;;;16.60;75.00;;;;;;5070696;28;20334;-64
2023/08/07 05:35:11;;;;;;;3.13;1.00;;;16.60;74.10;;;;;;5067632;28;20186;-65
2023/08/07 05:37:39;;;;;;;4.03;1.30;;;16.60;73.70;;;;;;5068977;28;20259;-64
2023/08/07 05:40:07;;;;;;;1.60;1.30;;;16.50;74.00;;;;;;5069361;28;20269;-65
2023/08/07 05:42:34;;;;;;;2.77;1.40;;;16.30;73.30;;;;;;5071404;28;20694;-64
2023/08/07 05:45:03;;;;;;;5.43;1.40;;;16.20;73.70;;;;;;5067949;28;20206;-64
2023/08/07 05:47:32;;;;;;;2.90;1.30;;;16.20;73.50;;;;;;5070930;28;20192;-64
2023/08/07 05:49:59;;;;;;;1.57;1.23;;;16.00;73.60;;;;;;5068818;28;20183;-64
2023/08/07 05:52:27;;;;;;;2.10;1.10;;;16.10;73.90;;;;;;5070055;28;20188;-65
2023/08/07 05:54:54;;;;;;;5.40;1.47;;;16.10;73.60;;;;;;5071035;28;20194;-64
2023/08/07 05:57:21;;;;;;;2.67;1.20;;;16.20;74.60;;;;;;5068855;28;20296;-67
2023/08/07 05:59:49;;;;;;;2.07;1.10;;;16.20;75.10;;;;;;5070079;28;20254;-64
2023/08/07 06:02:16;;;;;;;2.87;1.00;;;16.10;75.40;;;;;;5069590;28;20571;-64
2023/08/07 06:04:43;;;;;;;2.00;0.90;;;16.00;75.60;;;;;;5068280;28;20272;-68
2023/08/07 06:07:11;;;;;;;1.30;0.90;;;16.00;75.20;;;;;;5069556;28;20218;-73
2023/08/07 06:09:38;;;;;;;2.50;0.80;;;15.90;75.70;;;;;;5069801;28;20212;-65
2023/08/07 06:12:06;;;;;;;3.87;1.10;;;15.90;75.80;;;;;;5070884;28;20179;-70
2023/08/07 06:14:33;;;;;;;2.27;1.00;;;15.80;76.00;;;;;;5072102;28;20184;-66
2023/08/07 06:17:01;;;;;;;1.30;0.90;;;15.70;76.20;;;;;;5066557;28;20218;-69
2023/08/07 06:19:28;;;;;;;1.73;1.00;;;15.60;76.40;;;;;;5072169;28;20200;-69
2023/08/07 06:21:56;;;;;;;2.00;0.90;;;15.60;77.00;;;;;;5068300;28;20816;-68
2023/08/07 06:24:25;;;;;;;3.83;1.13;;;15.60;77.00;;;;;;5072715;28;20266;-66
2023/08/07 06:26:52;;;;;;;2.33;1.00;;;15.60;77.30;;;;;;5073753;28;20184;-67
2023/08/07 06:29:19;;;;;;;0.83;0.70;;;15.50;77.10;;;;;;5071702;28;20183;-68
2023/08/07 06:31:47;;;;;;;1.67;0.87;;;15.50;77.60;;;;;;5071516;28;20281;-69
2023/08/07 06:34:14;;;;;;;2.53;0.90;;;15.60;78.00;;;;;;5071273;28;20187;-64
2023/08/07 06:36:41;;;;;;;2.20;1.00;;;15.60;78.20;;;;;;5073341;28;20180;-68
2023/08/07 06:39:08;;;;;;;2.20;1.00;;;15.50;78.90;;;;;;5074030;28;20253;-69
2023/08/07 06:41:37;;;;;;;2.57;0.97;;;15.60;80.00;;;;;;5074552;28;20225;-65
2023/08/07 06:44:05;;;;;;;2.10;1.30;;;15.40;80.70;;;;;;5071562;28;20277;-71
2023/08/07 06:46:39;;;;;;;3.97;1.20;;;15.40;81.40;;;;;;5073309;28;20196;-67
2023/08/07 06:49:10;;;;;;;2.00;1.20;;;15.30;82.00;;;;;;5071110;28;20193;-72
2023/08/07 06:51:37;;;;;;;2.67;1.37;;;15.20;82.40;;;;;;5074233;28;20253;-65
2023/08/07 06:54:04;;;;;;;3.80;1.17;;;15.20;82.80;;;;;;5073891;28;20258;-64
2023/08/07 06:56:32;;;;;;;2.93;1.33;;;15.20;83.10;;;;;;5072240;28;20184;-72
2023/08/07 06:58:59;;;;;;;4.40;1.60;;;15.10;83.00;;;;;;5073454;28;20196;-67
2023/08/07 07:01:27;;;;;;;5.33;2.17;;;15.00;83.30;;;;;;5073133;28;20194;-69
2023/08/07 07:03:54;;;;;;;5.40;2.40;;;14.90;83.40;;;;;;5073691;28;20294;-69
2023/08/07 07:06:25;;;;;;;3.63;2.63;;;14.90;83.50;;;;;;5073767;28;20665;-66
2023/08/07 07:08:55;;;;;;;4.53;2.73;;;14.80;83.90;;;;;;5070744;28;20253;-66
2023/08/07 07:11:24;;;;;;;4.67;3.60;;;14.80;84.10;;;;;;5073776;28;20194;-66
2023/08/07 07:13:52;;;;;;;6.87;4.07;;;14.80;84.10;;;;;;5073126;28;20266;-66
2023/08/07 07:16:21;;;;;;;6.63;3.40;;;14.70;84.30;;;;;;5074015;28;20653;-69
2023/08/07 07:18:52;;;;;;;6.47;4.10;;;14.60;84.70;;;;;;5073330;28;20214;-71
2023/08/07 07:21:20;;;;;;;4.30;3.87;;;14.60;84.90;;;;;;5072249;28;20537;-71
2023/08/07 07:23:47;;;;;;;3.97;3.60;;;14.50;85.10;;;;;;5073703;28;20609;-69
2023/08/07 07:26:15;;;;;;;4.67;4.00;;;14.50;85.20;;;;;;5072546;28;20183;-71
2023/08/07 07:28:42;;;;;;;4.40;4.03;;;14.40;85.10;;;;;;5072872;28;20654;-65
2023/08/07 07:31:11;;;;;;;4.20;3.90;;;14.40;85.00;;;;;;5072281;28;20208;-71
2023/08/07 07:33:41;;;;;;;5.13;4.10;;;14.30;85.10;;;;;;5072724;28;20192;-70
2023/08/07 07:36:13;;;;;;;4.40;4.00;;;14.30;84.90;;;;;;5071755;28;20277;-68
2023/08/07 07:38:46;;;;;;;4.40;3.67;;;14.30;84.80;;;;;;5070214;28;20248;-72
2023/08/07 07:41:14;;;;;;;3.93;3.70;;;14.30;84.90;;;;;;5071069;28;20282;-67
2023/08/07 07:43:42;;;;;;;5.73;4.00;;;14.20;84.90;;;;;;5070879;28;20268;-70
2023/08/07 07:46:10;;;;;;;4.40;3.97;;;14.20;84.80;;;;;;5072209;28;20194;-70
2023/08/07 07:48:37;;;;;;;6.63;4.73;;;14.20;85.00;;;;;;5071868;28;20189;-73
2023/08/07 07:51:05;;;;;;;4.87;4.40;;;14.20;85.10;;;;;;5072657;28;20634;-72
2023/08/07 07:53:33;;;;;;;4.83;4.17;;;14.10;85.20;;;;;;5072628;28;20285;-70
2023/08/07 07:56:01;;;;;;;6.67;4.60;;;14.10;85.30;;;;;;5072763;28;20183;-72
2023/08/07 07:58:28;;;;;;;7.07;4.63;;;14.00;85.20;;;;;;5072553;28;20221;-67
2023/08/07 08:00:56;;;;;;;5.53;4.40;;;13.90;85.30;;;;;;5071588;28;20211;-72
2023/08/07 08:03:27;;;;;;;5.47;4.97;;;13.80;85.40;;;;;;5068680;28;20220;-72
2023/08/07 08:05:57;;;;;;;7.40;5.53;;;13.80;85.50;;;;;;5072434;28;20241;-72
2023/08/07 08:08:25;;;;;;;7.03;6.27;;;13.70;85.60;;;;;;5066024;28;20270;-70
2023/08/07 08:11:01;;;;;;;7.17;6.47;;;13.70;85.80;;;;;;5066961;28;20193;-71
2023/08/07 08:13:29;;;;;;;8.37;7.00;;;13.70;85.80;;;;;;5067391;28;20544;-66
2023/08/07 08:15:56;;;;;;;10.80;7.87;;;13.70;86.10;;;;;;5067203;28;20677;-71
2023/08/07 08:18:30;;;;;;;8.77;6.83;;;13.70;86.40;;;;;;5071109;28;20240;-71
2023/08/07 08:20:57;;;;;;;7.90;6.80;;;13.70;86.60;;;;;;5066097;28;20187;-71
2023/08/07 08:23:28;;;;;;;7.10;6.40;;;13.60;86.60;;;;;;5070344;28;20264;-65
2023/08/07 08:25:56;;;;;;;9.10;7.17;;;13.60;86.80;;;;;;5070687;28;20247;-66
2023/08/07 08:28:23;;;;;;;9.30;7.33;;;13.60;86.90;;;;;;5071790;28;20194;-68
2023/08/07 08:30:51;;;;;;;9.63;7.07;;;13.60;86.90;;;;;;5071001;28;20191;-65
2023/08/07 08:33:21;;;;;;;16.80;8.60;;;13.60;87.10;;;;;;5071304;28;20329;-69
2023/08/07 08:35:49;;;;;;;10.77;8.20;;;13.60;87.10;;;;;;5070075;28;20179;-72
2023/08/07 08:38:21;;;;;;;11.37;9.80;;;13.60;87.10;;;;;;5071681;28;20194;-66
2023/08/07 08:40:53;;;;;;;18.57;10.80;;;13.70;87.30;;;;;;5085832;28;20249;-72
2023/08/07 08:43:25;;;;;;;10.90;9.00;;;13.70;87.10;;;;;;5083538;28;20725;-68
2023/08/07 08:45:52;;;;;;;14.27;10.87;;;13.60;87.10;;;;;;5068615;28;20610;-68
2023/08/07 08:48:23;;;;;;;12.50;11.20;;;13.70;87.30;;;;;;5064788;28;20184;-68
2023/08/07 08:50:55;;;;;;;12.97;10.50;;;13.60;87.30;;;;;;5065709;28;20195;-68
2023/08/07 08:53:32;;;;;;;12.37;11.10;;;13.70;87.40;;;;;;5069929;28;20666;-69
2023/08/07 08:56:02;;;;;;;14.17;10.30;;;13.50;87.20;;;;;;5066666;28;20190;-72
2023/08/07 08:58:33;;;;;;;12.10;9.83;;;13.50;87.10;;;;;;5070716;28;20202;-70
2023/08/07 09:01:03;;;;;;;12.83;10.10;;;13.40;87.30;;;;;;5069059;28;20265;-65
2023/08/07 09:03:37;;;;;;;14.90;12.10;;;13.40;87.40;;;;;;5081293;28;20248;-73
2023/08/07 09:06:07;;;;;;;13.53;12.27;;;13.40;87.50;;;;;;5070071;28;20203;-72
2023/08/07 09:08:36;;;;;;;13.93;12.53;;;13.40;87.60;;;;;;5066813;28;20210;-72
2023/08/07 09:11:05;;;;;;;16.23;12.93;;;13.30;87.60;;;;;;5069879;28;20175;-67
2023/08/07 09:13:36;;;;;;;14.33;13.00;;;13.40;87.90;;;;;;5068773;28;20274;-74
2023/08/07 09:16:08;;;;;;;13.10;11.90;;;13.40;88.00;;;;;;5067091;28;20203;-67
2023/08/07 09:18:36;;;;;;;14.33;12.90;;;13.40;88.00;;;;;;5067665;28;20175;-68
2023/08/07 09:21:03;;;;;;;16.33;14.33;;;13.40;87.90;;;;;;5064344;28;20210;-64
2023/08/07 09:23:31;;;;;;;14.07;12.87;;;13.40;88.00;;;;;;5069526;28;20821;-67
2023/08/07 09:26:02;;;;;;;16.43;14.30;;;13.40;88.00;;;;;;5068621;28;20191;-67
2023/08/07 09:28:30;;;;;;;15.93;14.50;;;13.30;88.00;;;;;;5070808;28;20232;-72
2023/08/07 09:31:01;;;;;;;17.93;16.23;;;13.40;88.30;;;;;;5069390;28;20694;-69
2023/08/07 09:36:05;;;;;;;18.33;16.63;;;13.40;88.30;;;;;;5588301;22;20240;-78
2023/08/07 09:38:35;;;;;;;17.33;15.90;;;13.40;88.40;;;;;;5047045;28;20255;-81
2023/08/07 09:41:04;;;;;;;19.20;17.17;;;13.40;88.30;;;;;;5050701;28;20190;-85
2023/08/07 09:43:35;;;;;;;20.20;18.57;;;13.40;88.50;;;;;;5050805;28;20211;-80
2023/08/07 09:46:07;;;;;;;21.57;19.73;;;13.40;88.40;;;;;;5051652;28;20183;-87
2023/08/07 09:48:44;;;;;;;23.80;21.60;;;13.40;88.30;;;;;;5048166;28;20280;-87
2023/08/07 09:51:12;;;;;;;28.73;25.93;;;13.40;88.50;;;;;;5049829;28;20179;-87
2023/08/07 09:53:40;;;;;;;28.43;25.80;;;13.40;88.60;;;;;;5053582;28;20214;-85
2023/08/07 09:56:07;;;;;;;25.67;23.00;;;13.50;88.80;;;;;;5050844;28;20191;-85
2023/08/07 09:58:35;;;;;;;26.43;24.33;;;13.50;88.60;;;;;;5051480;28;20660;-87
2023/08/07 10:01:05;;;;;;;24.53;22.17;;;13.50;88.40;;;;;;5050858;28;20183;-85
2023/08/07 10:03:32;;;;;;;25.77;23.33;;;13.50;88.60;;;;;;5055882;28;20211;-90
2023/08/07 10:06:00;;;;;;;24.60;22.80;;;13.50;88.60;;;;;;5051855;28;20191;-87
2023/08/07 10:08:28;;;;;;;25.43;23.40;;;13.50;88.40;;;;;;5054505;28;20660;-80
2023/08/07 10:10:56;;;;;;;25.33;23.23;;;13.60;88.50;;;;;;5055416;28;20266;-84
2023/08/07 10:13:24;;;;;;;29.60;26.80;;;13.70;88.50;;;;;;5049291;28;20532;-90
2023/08/07 10:15:52;;;;;;;24.57;22.43;;;13.70;88.30;;;;;;5054968;28;20229;-82
2023/08/07 10:18:21;;;;;;;24.03;22.13;;;13.70;88.30;;;;;;5056888;28;20596;-88
2023/08/07 10:20:48;;;;;;;24.27;22.10;;;13.80;88.20;;;;;;5053905;28;20219;-84
2023/08/07 10:23:17;;;;;;;23.67;21.73;;;13.80;88.00;;;;;;5054338;28;20744;-81
2023/08/07 10:25:47;;;;;;;23.20;21.50;;;13.80;87.90;;;;;;5053220;28;20207;-86
2023/08/07 10:28:17;;;;;;;24.67;22.40;;;13.80;87.80;;;;;;5050296;28;20271;-87
2023/08/07 10:30:44;;;;;;;24.63;22.63;;;13.80;87.80;;;;;;5038478;28;20656;-81
2023/08/07 10:33:14;;;;;;;23.20;21.37;;;13.80;87.70;;;;;;5054802;28;20184;-79
2023/08/07 10:35:50;;;;;;;21.93;20.23;;;13.90;87.80;;;;;;5053151;28;20222;-77
2023/08/07 10:38:22;;;;;;;21.87;20.07;;;13.90;87.70;;;;;;5053756;28;20203;-83
2023/08/07 10:41:03;;;;;;;19.20;17.90;;;13.90;87.60;;;;;;5056063;28;20197;-77
2023/08/07 10:43:31;;;;;;;20.53;18.80;;;13.90;87.30;;;;;;5056798;28;20749;-76
2023/08/07 10:46:05;;;;;;;22.63;20.97;;;13.90;87.10;;;;;;5056163;28;20641;-78
2023/08/07 10:48:39;;;;;;;23.60;21.70;;;13.90;87.10;;;;;;5061998;28;20192;-81
2023/08/07 10:51:07;;;;;;;24.50;22.50;;;13.80;87.30;;;;;;5061465;28;20180;-77
2023/08/07 10:53:46;;;;;;;23.90;22.07;;;13.80;87.30;;;;;;5056833;28;20176;-75
2023/08/07 10:56:31;;;;;;;24.80;22.83;;;13.80;87.50;;;;;;5058677;28;20537;-77
2023/08/07 10:58:59;;;;;;;26.70;24.70;;;13.80;87.60;;;;;;5058082;28;20653;-77
2023/08/07 11:01:42;;;;;;;23.73;22.13;;;13.70;87.60;;;;;;5058227;28;20668;-77
2023/08/07 11:04:14;;;;;;;24.97;22.80;;;13.70;87.80;;;;;;5041184;28;20219;-74
2023/08/07 11:06:44;;;;;;;23.67;22.13;;;13.70;87.80;;;;;;5057345;28;20616;-75
2023/08/07 11:09:11;;;;;;;25.53;23.33;;;13.60;87.80;;;;;;5058812;28;20180;-76
2023/08/07 11:11:41;;;;;;;27.33;25.43;;;13.50;88.00;;;;;;5056754;28;20570;-78
2023/08/07 11:14:13;;;;;;;29.60;27.30;;;13.50;88.00;;;;;;5051228;28;20187;-79
2023/08/07 11:16:41;;;;;;;29.73;27.93;;;13.50;88.20;;;;;;5056673;28;20172;-78
2023/08/07 11:19:09;;;;;;;33.30;30.97;;;13.40;88.20;;;;;;5054468;28;20178;-77
2023/08/07 11:21:38;;;;;;;35.77;33.07;;;13.30;88.30;;;;;;5051706;28;20222;-77
2023/08/07 11:24:06;;;;;;;36.57;33.77;;;13.30;88.40;;;;;;5052474;28;20306;-79
2023/08/07 11:26:33;;;;;;;38.73;36.17;;;13.30;88.50;;;;;;5052245;28;20510;-79
2023/08/07 11:29:00;;;;;;;38.13;35.37;;;13.30;88.60;;;;;;5053647;28;20743;-76
2023/08/07 11:31:28;;;;;;;37.80;35.40;;;13.30;88.70;;;;;;5055012;28;20191;-82
2023/08/07 11:34:02;;;;;;;35.97;33.57;;;13.30;88.80;;;;;;5031480;28;20180;-75
2023/08/07 11:36:31;;;;;;;35.53;33.20;;;13.30;88.80;;;;;;5049962;28;20642;-79
2023/08/07 11:38:58;;;;;;;38.67;36.07;;;13.30;88.80;;;;;;5053521;28;20271;-77
2023/08/07 11:41:26;;;;;;;38.37;35.30;;;13.30;88.90;;;;;;5049917;28;20755;-76
2023/08/07 11:43:53;;;;;;;38.30;35.80;;;13.30;88.90;;;;;;5050945;28;20219;-77
2023/08/07 11:46:21;;;;;;;40.20;37.60;;;13.30;88.90;;;;;;5053618;28;20263;-80
2023/08/07 11:48:48;;;;;;;41.70;38.70;;;13.30;89.00;;;;;;5050974;28;20199;-76
2023/08/07 11:51:16;;;;;;;39.50;36.77;;;13.30;88.90;;;;;;5058075;28;20554;-75
2023/08/07 11:53:43;;;;;;;41.10;38.30;;;13.30;89.10;;;;;;5054261;28;20579;-76
2023/08/07 11:56:17;;;;;;;41.37;38.57;;;13.30;89.00;;;;;;5031979;28;20606;-80
2023/08/07 11:58:46;;;;;;;40.70;37.73;;;13.30;89.00;;;;;;5048065;28;20184;-78
2023/08/07 12:01:24;;;;;;;39.17;36.57;;;13.30;89.00;;;;;;5052952;28;20253;-76
2023/08/07 12:04:09;;;;;;;42.53;39.37;;;13.20;88.90;;;;;;5052771;28;20216;-77
2023/08/07 12:06:54;;;;;;;39.03;36.43;;;13.20;88.90;;;;;;5052518;28;20263;-80
2023/08/07 12:09:22;;;;;;;41.93;39.33;;;13.20;89.10;;;;;;5052480;28;20498;-76
2023/08/07 12:11:49;;;;;;;41.10;38.30;;;13.20;89.10;;;;;;5050151;28;20771;-80
2023/08/07 12:14:17;;;;;;;41.17;38.47;;;13.30;89.10;;;;;;5049191;28;20630;-77
2023/08/07 12:16:49;;;;;;;42.97;39.90;;;13.20;89.00;;;;;;5051373;28;20183;-76
2023/08/07 12:19:18;;;;;;;42.40;39.70;;;13.20;89.00;;;;;;5050881;28;20179;-77
2023/08/07 12:21:46;;;;;;;46.70;43.77;;;13.20;89.00;;;;;;5053376;28;20180;-77
2023/08/07 12:24:14;;;;;;;45.90;42.97;;;13.20;89.00;;;;;;5050376;28;20598;-77
2023/08/07 12:26:42;;;;;;;49.43;46.03;;;13.20;89.00;;;;;;5049826;28;20241;-77
2023/08/07 12:29:09;;;;;;;49.07;45.97;;;13.20;89.00;;;;;;5051795;28;20235;-76
2023/08/07 12:31:39;;;;;;;50.57;47.10;;;13.20;89.10;;;;;;5052640;28;20190;-75
2023/08/07 12:34:08;;;;;;;51.07;47.67;;;13.20;89.10;;;;;;5052981;28;20637;-82
2023/08/07 12:36:36;;;;;;;53.93;50.57;;;13.20;89.10;;;;;;5049104;28;20312;-76
2023/08/07 12:39:06;;;;;;;52.70;49.17;;;13.10;89.00;;;;;;5051807;28;20187;-80
2023/08/07 12:41:33;;;;;;;57.00;53.60;;;13.10;89.20;;;;;;5048975;28;20176;-76
2023/08/07 12:44:01;;;;;;;54.97;51.07;;;13.20;89.30;;;;;;5049717;28;20212;-76
2023/08/07 12:46:28;;;;;;;55.87;52.30;;;13.10;89.30;;;;;;5033018;28;20275;-89
2023/08/07 12:48:55;;;;;;;55.77;52.10;;;13.20;89.50;;;;;;5052178;28;20703;-87
2023/08/07 12:51:23;;;;;;;55.57;51.83;;;13.20;89.30;;;;;;5045616;28;20199;-88